createdAt,value
2018-06-28T00:01:40.980Z,6.30
2018-06-28T00:04:10.208Z,4.80
2018-06-28T00:06:39.413Z,7.00
2018-06-28T00:09:09.915Z,2.73
2018-06-28T00:11:39.592Z,2.57
2018-06-28T00:14:08.796Z,4.70
2018-06-28T00:16:38.075Z,4.03
2018-06-28T00:19:07.319Z,4.17
2018-06-28T00:21:36.723Z,2.47
2018-06-28T00:24:05.989Z,4.20
2018-06-28T00:26:35.197Z,4.17
2018-06-28T00:29:04.394Z,3.33
2018-06-28T00:31:33.663Z,4.33
2018-06-28T00:34:02.894Z,4.50
2018-06-28T00:36:32.147Z,2.17
2018-06-28T00:39:01.474Z,4.57
2018-06-28T00:41:30.814Z,5.30
2018-06-28T00:44:00.054Z,3.20
2018-06-28T00:46:29.248Z,2.83
2018-06-28T00:48:58.545Z,2.67
2018-06-28T00:51:27.780Z,2.87
2018-06-28T00:53:57.491Z,5.33
2018-06-28T00:56:26.690Z,4.97
2018-06-28T00:58:55.889Z,2.73
2018-06-28T01:01:25.141Z,2.50
2018-06-28T01:03:54.472Z,3.87
2018-06-28T01:06:23.655Z,4.80
2018-06-28T01:08:52.849Z,3.37
2018-06-28T01:11:22.241Z,4.43
2018-06-28T01:13:51.448Z,3.77
2018-06-28T01:16:20.714Z,3.77
2018-06-28T01:18:49.917Z,3.43
2018-06-28T01:21:19.220Z,2.83
2018-06-28T01:23:48.437Z,4.50
2018-06-28T01:26:17.653Z,4.67
2018-06-28T01:28:46.865Z,2.30
2018-06-28T01:31:16.189Z,2.10
2018-06-28T01:33:45.417Z,5.23
2018-06-28T01:36:14.646Z,2.90
2018-06-28T01:38:43.931Z,4.00
2018-06-28T01:41:13.266Z,4.13
2018-06-28T01:43:43.739Z,4.00
2018-06-28T01:46:13.009Z,3.53
2018-06-28T01:48:42.308Z,2.97
2018-06-28T01:51:11.604Z,2.53
2018-06-28T01:53:40.841Z,8.07
2018-06-28T01:56:10.060Z,2.83
2018-06-28T01:58:39.652Z,2.93
2018-06-28T02:01:08.873Z,5.47
2018-06-28T02:03:38.073Z,3.30
2018-06-28T02:06:07.280Z,2.83
2018-06-28T02:08:36.512Z,2.57
2018-06-28T02:11:05.807Z,3.20
2018-06-28T02:13:35.009Z,3.07
2018-06-28T02:16:04.227Z,4.10
2018-06-28T02:18:33.442Z,4.30
2018-06-28T02:21:02.802Z,3.83
2018-06-28T02:23:32.072Z,3.37
2018-06-28T02:26:01.338Z,2.57
2018-06-28T02:28:30.557Z,4.83
2018-06-28T02:31:00.210Z,2.93
2018-06-28T02:33:29.440Z,2.50
2018-06-28T02:35:58.692Z,3.40
2018-06-28T02:38:27.905Z,3.63
2018-06-28T02:40:57.212Z,6.07
2018-06-28T02:43:26.469Z,4.67
2018-06-28T02:45:55.669Z,3.67
2018-06-28T02:48:24.905Z,2.27
2018-06-28T02:50:55.253Z,2.60
2018-06-28T02:53:24.532Z,3.03
2018-06-28T02:55:53.758Z,3.03
2018-06-28T02:58:22.981Z,4.03
2018-06-28T03:00:52.184Z,3.90
2018-06-28T03:03:21.420Z,5.03
2018-06-28T03:05:50.659Z,2.93
2018-06-28T03:08:19.881Z,2.77
2018-06-28T03:10:49.105Z,3.63
2018-06-28T03:13:18.320Z,3.63
2018-06-28T03:15:47.527Z,3.97
2018-06-28T03:18:16.749Z,5.00
2018-06-28T03:20:46.014Z,5.17
2018-06-28T03:23:15.245Z,3.43
2018-06-28T03:25:44.545Z,3.03
2018-06-28T03:28:13.740Z,4.13
2018-06-28T03:30:43.100Z,2.90
2018-06-28T03:33:12.335Z,4.27
2018-06-28T03:35:41.566Z,2.77
2018-06-28T03:38:11.149Z,6.00
2018-06-28T03:40:40.356Z,5.07
2018-06-28T03:43:09.576Z,4.63
2018-06-28T03:45:38.845Z,5.23
2018-06-28T03:48:08.050Z,3.90
2018-06-28T03:50:37.248Z,3.10
2018-06-28T03:53:06.953Z,3.57
2018-06-28T03:55:36.150Z,3.77
2018-06-28T03:58:05.448Z,2.87
2018-06-28T04:00:34.688Z,4.03
2018-06-28T04:03:03.976Z,3.07
2018-06-28T04:05:33.213Z,2.80
2018-06-28T04:08:02.823Z,5.50
2018-06-28T04:10:32.059Z,6.40
2018-06-28T04:13:01.279Z,6.50
2018-06-28T04:15:30.504Z,4.43
2018-06-28T04:17:59.753Z,7.60
2018-06-28T04:20:28.986Z,3.93
2018-06-28T04:22:58.188Z,3.90
2018-06-28T04:25:27.997Z,5.13
2018-06-28T04:27:57.970Z,6.93
2018-06-28T04:30:28.086Z,3.50
2018-06-28T04:32:57.981Z,14.90
2018-06-28T04:35:28.043Z,13.53
2018-06-28T04:37:57.465Z,10.77
2018-06-28T04:40:27.263Z,14.77
2018-06-28T04:42:56.677Z,9.77
2018-06-28T04:45:25.640Z,13.57
2018-06-28T04:47:54.936Z,12.33
2018-06-28T04:50:24.204Z,17.00
2018-06-28T04:52:53.510Z,13.90
2018-06-28T04:55:22.742Z,9.00
2018-06-28T04:57:51.942Z,6.97
2018-06-28T05:00:21.139Z,6.73
2018-06-28T05:02:50.473Z,6.17
2018-06-28T05:05:19.673Z,8.93
2018-06-28T05:07:48.952Z,5.83
2018-06-28T05:10:18.157Z,5.57
2018-06-28T05:12:47.636Z,4.77
2018-06-28T05:15:16.830Z,8.57
2018-06-28T05:17:46.075Z,11.33
2018-06-28T05:20:15.464Z,10.93
2018-06-28T05:22:44.661Z,8.67
2018-06-28T05:25:13.857Z,5.40
2018-06-28T05:27:45.923Z,4.03
2018-06-28T05:30:15.230Z,5.40
2018-06-28T05:32:44.536Z,5.40
2018-06-28T05:35:13.790Z,5.37
2018-06-28T05:37:42.991Z,7.87
2018-06-28T05:40:12.194Z,4.93
2018-06-28T05:42:41.460Z,5.50
2018-06-28T05:45:10.724Z,8.00
2018-06-28T05:47:39.982Z,5.90
2018-06-28T05:50:09.394Z,4.40
2018-06-28T05:52:38.660Z,3.30
2018-06-28T05:55:07.898Z,5.53
2018-06-28T05:57:37.128Z,6.97
2018-06-28T06:00:06.792Z,3.80
2018-06-28T06:02:36.046Z,6.40
2018-06-28T06:05:05.273Z,2.67
2018-06-28T06:07:34.549Z,3.23
2018-06-28T06:10:03.769Z,2.60
2018-06-28T06:12:33.101Z,3.37
2018-06-28T06:15:02.323Z,3.30
2018-06-28T06:17:31.537Z,2.53
2018-06-28T06:20:00.767Z,5.17
2018-06-28T06:22:30.091Z,2.90
2018-06-28T06:24:59.392Z,4.47
2018-06-28T06:27:28.649Z,3.10
2018-06-28T06:29:57.922Z,2.43
2018-06-28T06:32:27.328Z,2.50
2018-06-28T06:34:56.621Z,2.50
2018-06-28T06:37:25.870Z,3.23
2018-06-28T06:39:55.200Z,3.07
2018-06-28T06:42:24.529Z,2.80
2018-06-28T06:44:53.816Z,4.00
2018-06-28T06:47:23.117Z,3.73
2018-06-28T06:49:52.989Z,3.63
2018-06-28T06:52:22.315Z,2.50
2018-06-28T06:54:51.559Z,2.97
2018-06-28T06:57:20.853Z,2.23
2018-06-28T06:59:50.116Z,2.23
2018-06-28T07:02:19.469Z,2.30
2018-06-28T07:04:48.770Z,2.43
2018-06-28T07:07:17.471Z,2.47
2018-06-28T07:09:46.744Z,2.40
2018-06-28T07:12:16.341Z,2.47
2018-06-28T07:14:45.672Z,3.70
2018-06-28T07:17:15.048Z,2.10
2018-06-28T07:19:44.408Z,2.20
2018-06-28T07:22:13.789Z,2.30
2018-06-28T07:24:43.108Z,2.33
2018-06-28T07:27:12.454Z,3.17
2018-06-28T07:29:41.723Z,2.40
2018-06-28T07:32:11.092Z,2.53
2018-06-28T07:34:40.345Z,2.40
2018-06-28T07:37:09.593Z,2.60
2018-06-28T07:39:38.875Z,3.23
2018-06-28T07:42:08.270Z,3.13
2018-06-28T07:44:37.592Z,1.80
2018-06-28T07:47:06.900Z,2.30
2018-06-28T07:49:36.232Z,3.03
2018-06-28T07:52:05.547Z,4.40
2018-06-28T07:54:34.828Z,2.70
2018-06-28T07:57:04.050Z,3.53
2018-06-28T07:59:33.340Z,2.80
2018-06-28T08:02:02.619Z,2.50
2018-06-28T08:04:31.920Z,3.53
2018-06-28T08:07:01.204Z,4.17
2018-06-28T08:09:30.427Z,4.23
2018-06-28T08:11:59.717Z,4.47
2018-06-28T08:14:28.993Z,4.47
2018-06-28T08:16:58.292Z,8.73
2018-06-28T08:19:27.525Z,11.50
2018-06-28T08:21:56.824Z,12.97
2018-06-28T08:24:26.036Z,26.43
2018-06-28T08:26:57.209Z,13.07
2018-06-28T08:29:26.457Z,15.87
2018-06-28T08:31:55.779Z,13.60
2018-06-28T08:34:25.063Z,12.03
2018-06-28T08:36:54.289Z,11.27
2018-06-28T08:39:23.501Z,13.17
2018-06-28T08:41:52.905Z,12.43
2018-06-28T08:44:22.567Z,7.83
2018-06-28T08:46:51.778Z,11.50
2018-06-28T08:49:21.321Z,11.70
2018-06-28T08:51:50.685Z,6.10
2018-06-28T08:54:19.988Z,4.97
2018-06-28T08:56:49.303Z,8.83
2018-06-28T08:59:18.965Z,8.00
2018-06-28T09:01:48.316Z,7.63
2018-06-28T09:04:17.579Z,10.23
2018-06-28T09:06:46.829Z,8.87
2018-06-28T09:09:16.059Z,6.57
2018-06-28T09:11:45.289Z,8.87
2018-06-28T09:14:14.523Z,9.93
2018-06-28T09:16:43.216Z,11.43
2018-06-28T09:19:12.477Z,5.50
2018-06-28T09:21:41.901Z,6.47
2018-06-28T09:24:11.093Z,6.43
2018-06-28T09:26:40.519Z,4.23
2018-06-28T09:29:09.799Z,7.60
2018-06-28T09:31:39.453Z,5.73
2018-06-28T09:34:08.706Z,5.80
2018-06-28T09:36:37.916Z,3.33
2018-06-28T09:39:09.653Z,4.57
2018-06-28T09:41:38.951Z,4.37
2018-06-28T09:44:08.237Z,3.77
2018-06-28T09:46:37.477Z,4.27
2018-06-28T09:49:06.688Z,8.97
2018-06-28T09:51:36.050Z,4.80
2018-06-28T09:54:05.641Z,5.43
2018-06-28T09:56:34.916Z,3.43
2018-06-28T09:59:04.238Z,4.03
2018-06-28T10:01:33.574Z,4.27
2018-06-28T10:04:03.229Z,3.77
2018-06-28T10:06:32.459Z,2.50
2018-06-28T10:09:01.690Z,5.70
2018-06-28T10:11:31.032Z,6.37
2018-06-28T10:14:00.272Z,3.50
2018-06-28T10:16:29.591Z,6.70
2018-06-28T10:18:58.832Z,4.87
2018-06-28T10:21:28.186Z,6.47
2018-06-28T10:23:57.429Z,4.53
2018-06-28T10:26:26.776Z,4.00
2018-06-28T10:28:56.051Z,4.60
2018-06-28T10:31:25.448Z,5.33
2018-06-28T10:34:00.889Z,7.13
2018-06-28T10:36:30.114Z,3.50
2018-06-28T10:38:59.400Z,4.90
2018-06-28T10:41:28.660Z,5.00
2018-06-28T10:43:57.948Z,5.10
2018-06-28T10:46:27.191Z,5.00
2018-06-28T10:48:56.413Z,5.77
2018-06-28T10:51:25.693Z,6.60
2018-06-28T10:53:54.964Z,3.33
2018-06-28T10:56:24.467Z,3.10
2018-06-28T10:58:53.939Z,3.47
2018-06-28T11:01:23.314Z,3.13
2018-06-28T11:03:52.602Z,3.10
2018-06-28T11:06:21.816Z,3.80
2018-06-28T11:08:51.283Z,3.67
2018-06-28T11:11:20.635Z,4.50
2018-06-28T11:13:49.852Z,4.30
2018-06-28T11:16:19.081Z,4.40
2018-06-28T11:18:48.324Z,3.73
2018-06-28T11:21:17.608Z,5.67
2018-06-28T11:23:46.836Z,4.13
2018-06-28T11:26:16.142Z,4.17
2018-06-28T11:28:44.914Z,2.90
2018-06-28T11:31:14.398Z,4.07
2018-06-28T11:33:43.699Z,4.10
2018-06-28T11:36:13.073Z,3.50
2018-06-28T11:38:42.338Z,4.07
2018-06-28T11:41:11.731Z,4.57
2018-06-28T11:43:40.979Z,4.40
2018-06-28T11:46:10.204Z,2.53
2018-06-28T11:48:39.435Z,2.40
2018-06-28T11:51:08.748Z,6.00
2018-06-28T11:53:37.972Z,4.63
2018-06-28T11:56:07.204Z,3.60
2018-06-28T11:58:36.504Z,3.13
2018-06-28T12:01:05.779Z,4.50
2018-06-28T12:03:35.181Z,3.47
2018-06-28T12:06:04.539Z,2.20
2018-06-28T12:08:33.735Z,3.73
2018-06-28T12:11:02.995Z,2.60
2018-06-28T12:13:32.325Z,3.07
2018-06-28T12:16:01.576Z,3.83
2018-06-28T12:18:30.793Z,3.20
2018-06-28T12:21:00.125Z,2.20
2018-06-28T12:23:29.434Z,3.43
2018-06-28T12:25:58.694Z,3.50
2018-06-28T12:28:27.896Z,3.20
2018-06-28T12:30:57.272Z,6.27
2018-06-28T12:33:26.529Z,3.90
2018-06-28T12:36:00.212Z,3.77
2018-06-28T12:38:30.547Z,5.30
2018-06-28T12:40:59.969Z,5.70
2018-06-28T12:43:30.380Z,11.30
2018-06-28T12:46:01.165Z,7.40
2018-06-28T12:48:30.503Z,10.47
2018-06-28T12:50:59.840Z,5.90
2018-06-28T12:53:29.287Z,5.23
2018-06-28T12:56:31.512Z,6.83
2018-06-28T12:59:01.689Z,5.47
2018-06-28T13:01:31.434Z,7.30
2018-06-28T13:04:00.738Z,4.77
2018-06-28T13:06:30.130Z,6.03
2018-06-28T13:09:00.064Z,4.90
2018-06-28T13:11:29.781Z,3.93
2018-06-28T13:13:59.059Z,5.60
2018-06-28T13:16:29.328Z,4.97
2018-06-28T13:18:58.649Z,4.37
2018-06-28T13:21:28.000Z,5.00
2018-06-28T13:23:57.295Z,6.20
2018-06-28T13:26:26.592Z,3.47
2018-06-28T13:28:55.863Z,2.43
2018-06-28T13:31:25.161Z,3.90
2018-06-28T13:33:54.541Z,3.90
2018-06-28T13:36:23.773Z,2.77
2018-06-28T13:38:53.231Z,2.53
2018-06-28T13:41:22.855Z,4.07
2018-06-28T13:43:51.847Z,2.00
2018-06-28T13:46:21.175Z,3.20
2018-06-28T13:48:50.463Z,1.97
2018-06-28T13:51:19.860Z,2.50
2018-06-28T13:53:49.197Z,4.27
2018-06-28T13:56:18.473Z,3.63
2018-06-28T13:58:47.726Z,2.07
2018-06-28T14:01:17.128Z,2.43
2018-06-28T14:03:46.471Z,2.70
2018-06-28T14:06:15.853Z,3.17
2018-06-28T14:08:45.172Z,2.97
2018-06-28T14:11:14.571Z,3.27
2018-06-28T14:13:43.855Z,1.80
2018-06-28T14:16:13.111Z,2.77
2018-06-28T14:18:42.430Z,1.90
2018-06-28T14:21:11.828Z,3.50
2018-06-28T14:23:41.117Z,1.93
2018-06-28T14:26:10.378Z,2.70
2018-06-28T14:28:39.587Z,2.53
2018-06-28T14:31:08.856Z,1.90
2018-06-28T14:33:38.158Z,2.60
2018-06-28T14:36:07.424Z,1.83
2018-06-28T14:38:36.183Z,2.40
2018-06-28T14:41:05.525Z,1.70
2018-06-28T14:43:34.801Z,2.03
2018-06-28T14:46:04.082Z,2.20
2018-06-28T14:48:33.517Z,2.03
2018-06-28T14:51:02.912Z,2.20
2018-06-28T14:53:32.248Z,4.10
2018-06-28T14:56:01.582Z,1.70
2018-06-28T14:58:30.902Z,3.27
2018-06-28T15:01:00.184Z,1.83
2018-06-28T15:03:29.491Z,2.83
2018-06-28T15:05:58.781Z,1.83
2018-06-28T15:08:28.162Z,1.70
2018-06-28T15:10:57.631Z,2.27
2018-06-28T15:13:27.609Z,1.90
2018-06-28T15:15:56.966Z,3.30
2018-06-28T15:18:26.254Z,3.37
2018-06-28T15:20:55.651Z,3.80
2018-06-28T15:23:24.907Z,2.90
2018-06-28T15:25:54.183Z,2.07
2018-06-28T15:28:23.452Z,2.33
2018-06-28T15:30:52.870Z,4.20
2018-06-28T15:33:22.212Z,3.83
2018-06-28T15:35:51.477Z,1.70
2018-06-28T15:38:20.739Z,2.13
2018-06-28T15:40:50.015Z,2.93
2018-06-28T15:43:19.308Z,2.40
2018-06-28T15:45:48.791Z,6.40
2018-06-28T15:48:18.092Z,5.70
2018-06-28T15:50:47.419Z,2.23
2018-06-28T15:53:16.615Z,3.33
2018-06-28T15:55:45.853Z,2.67
2018-06-28T15:58:15.444Z,2.53
2018-06-28T16:00:44.740Z,5.17
2018-06-28T16:03:14.283Z,2.30
2018-06-28T16:05:43.532Z,2.17
2018-06-28T16:08:12.747Z,3.40
2018-06-28T16:10:42.266Z,3.67
2018-06-28T16:13:11.522Z,2.60
2018-06-28T16:15:41.135Z,3.80
2018-06-28T16:18:10.735Z,4.07
2018-06-28T16:20:40.064Z,7.33
2018-06-28T16:23:09.339Z,2.70
2018-06-28T16:25:38.540Z,7.07
2018-06-28T16:28:07.741Z,6.07
2018-06-28T16:30:36.973Z,4.63
2018-06-28T16:33:06.290Z,3.73
2018-06-28T16:35:35.541Z,4.90
2018-06-28T16:38:04.820Z,6.53
2018-06-28T16:40:34.061Z,5.00
2018-06-28T16:43:03.353Z,4.73
2018-06-28T16:45:32.612Z,5.00
2018-06-28T16:48:01.875Z,2.60
2018-06-28T16:50:31.136Z,4.07
2018-06-28T16:53:00.390Z,2.33
2018-06-28T16:55:29.692Z,4.17
2018-06-28T16:57:58.956Z,5.17
2018-06-28T17:00:28.184Z,5.40
2018-06-28T17:02:57.696Z,8.30
2018-06-28T17:05:26.969Z,5.10
2018-06-28T17:07:56.344Z,6.47
2018-06-28T17:10:25.484Z,3.50
2018-06-28T17:12:54.837Z,3.13
2018-06-28T17:15:24.108Z,3.47
2018-06-28T17:17:53.348Z,6.43
2018-06-28T17:20:22.691Z,5.53
2018-06-28T17:22:52.043Z,6.07
2018-06-28T17:25:21.336Z,5.13
2018-06-28T17:27:50.561Z,4.43
2018-06-28T17:30:19.831Z,6.33
2018-06-28T17:32:49.238Z,5.20
2018-06-28T17:35:18.845Z,3.13
2018-06-28T17:37:48.075Z,2.57
2018-06-28T17:40:17.429Z,11.40
2018-06-28T17:42:46.669Z,6.73
2018-06-28T17:45:15.975Z,4.33
2018-06-28T17:47:45.220Z,9.43
2018-06-28T17:50:14.477Z,8.33
2018-06-28T17:52:44.259Z,6.27
2018-06-28T17:55:13.551Z,4.30
2018-06-28T17:57:42.873Z,4.67
2018-06-28T18:00:12.155Z,6.33
2018-06-28T18:02:41.500Z,10.60
2018-06-28T18:05:10.767Z,7.77
2018-06-28T18:07:40.065Z,7.50
2018-06-28T18:10:09.333Z,7.20
2018-06-28T18:12:38.657Z,7.17
2018-06-28T18:15:08.051Z,4.57
2018-06-28T18:17:37.285Z,8.30
2018-06-28T18:20:06.564Z,5.63
2018-06-28T18:22:35.874Z,5.77
2018-06-28T18:25:05.440Z,8.33
2018-06-28T18:27:34.704Z,9.23
2018-06-28T18:30:04.080Z,6.60
2018-06-28T18:32:33.413Z,5.80
2018-06-28T18:35:02.738Z,5.90
2018-06-28T18:37:32.080Z,5.03
2018-06-28T18:40:01.654Z,6.63
2018-06-28T18:42:31.008Z,4.10
2018-06-28T18:45:00.288Z,5.93
2018-06-28T18:47:29.518Z,6.30
2018-06-28T18:49:58.801Z,6.53
2018-06-28T18:52:28.107Z,5.13
2018-06-28T18:54:57.429Z,5.70
2018-06-28T18:57:26.728Z,5.63
2018-06-28T18:59:56.080Z,6.13
2018-06-28T19:02:25.413Z,5.53
2018-06-28T19:04:54.665Z,6.10
2018-06-28T19:07:23.924Z,4.07
2018-06-28T19:09:58.362Z,6.63
2018-06-28T19:12:28.163Z,9.07
2018-06-28T19:15:02.568Z,4.00
2018-06-28T19:17:31.847Z,2.83
2018-06-28T19:20:01.077Z,7.87
2018-06-28T19:22:35.496Z,6.97
2018-06-28T19:25:04.856Z,5.73
2018-06-28T19:27:34.132Z,6.83
2018-06-28T19:30:08.345Z,4.60
2018-06-28T19:32:37.678Z,8.03
2018-06-28T19:35:06.966Z,5.10
2018-06-28T19:37:54.483Z,7.37
2018-06-28T19:40:28.864Z,5.50
2018-06-28T19:43:04.209Z,7.23
2018-06-28T19:45:32.962Z,6.50
2018-06-28T19:48:02.258Z,6.13
2018-06-28T19:50:36.671Z,11.40
2018-06-28T19:53:09.924Z,7.90
2018-06-28T19:55:39.261Z,9.03
2018-06-28T19:58:08.794Z,8.97
2018-06-28T20:00:43.211Z,11.03
2018-06-28T20:03:18.201Z,6.93
2018-06-28T20:05:47.570Z,6.77
2018-06-28T20:08:16.900Z,5.10
2018-06-28T20:10:46.277Z,7.00
2018-06-28T20:13:21.238Z,7.13
2018-06-28T20:15:56.372Z,7.03
2018-06-28T20:18:30.749Z,5.63
2018-06-28T20:21:01.603Z,9.13
2018-06-28T20:23:31.847Z,6.63
2018-06-28T20:26:06.041Z,4.47
2018-06-28T20:28:40.423Z,5.97
2018-06-28T20:31:14.892Z,4.23
2018-06-28T20:33:49.535Z,3.87
2018-06-28T20:36:18.758Z,5.53
2018-06-28T20:38:47.959Z,5.77
2018-06-28T20:41:17.229Z,2.53
2018-06-28T20:43:46.585Z,4.30
2018-06-28T20:46:16.020Z,3.50
2018-06-28T20:48:45.195Z,2.93
2018-06-28T20:51:14.575Z,3.87
2018-06-28T20:53:43.760Z,3.63
2018-06-28T20:56:12.962Z,5.13
2018-06-28T20:58:42.708Z,3.63
2018-06-28T21:01:12.041Z,8.17
2018-06-28T21:03:41.292Z,3.20
2018-06-28T21:06:10.553Z,3.00
2018-06-28T21:08:40.076Z,5.17
2018-06-28T21:11:09.400Z,3.73
2018-06-28T21:13:38.654Z,3.13
2018-06-28T21:16:08.048Z,2.30
2018-06-28T21:18:37.312Z,3.63
2018-06-28T21:21:06.683Z,2.13
2018-06-28T21:23:35.913Z,3.83
2018-06-28T21:26:05.149Z,3.70
2018-06-28T21:28:34.333Z,3.47
2018-06-28T21:31:03.654Z,3.43
2018-06-28T21:33:32.908Z,2.80
2018-06-28T21:36:02.144Z,4.63
2018-06-28T21:38:31.349Z,2.27
2018-06-28T21:41:00.671Z,3.47
2018-06-28T21:43:29.863Z,4.07
2018-06-28T21:45:59.071Z,8.70
2018-06-28T21:48:28.283Z,6.40
2018-06-28T21:50:57.499Z,3.10
2018-06-28T21:53:26.689Z,3.97
2018-06-28T21:55:55.995Z,4.50
2018-06-28T21:58:25.248Z,5.70
2018-06-28T22:00:54.792Z,2.77
2018-06-28T22:03:24.116Z,2.47
2018-06-28T22:05:53.392Z,6.47
2018-06-28T22:08:22.666Z,2.70
2018-06-28T22:10:51.977Z,2.70
2018-06-28T22:13:21.297Z,2.00
2018-06-28T22:15:50.513Z,4.67
2018-06-28T22:18:19.704Z,3.83
2018-06-28T22:20:49.350Z,2.17
2018-06-28T22:23:18.545Z,5.00
2018-06-28T22:25:47.766Z,2.00
2018-06-28T22:28:16.974Z,3.10
2018-06-28T22:30:46.197Z,5.53
2018-06-28T22:33:15.440Z,2.93
2018-06-28T22:35:44.748Z,2.20
2018-06-28T22:38:13.996Z,2.27
2018-06-28T22:40:43.316Z,3.70
2018-06-28T22:43:12.629Z,5.10
2018-06-28T22:45:41.891Z,2.70
2018-06-28T22:48:11.140Z,2.07
2018-06-28T22:50:40.681Z,4.73
2018-06-28T22:53:10.015Z,3.93
2018-06-28T22:55:39.275Z,2.93
2018-06-28T22:58:08.506Z,3.07
2018-06-28T23:00:37.805Z,2.43
2018-06-28T23:03:07.069Z,3.07
2018-06-28T23:05:36.324Z,4.40
2018-06-28T23:08:05.277Z,2.83
2018-06-28T23:10:34.541Z,1.80
2018-06-28T23:13:03.801Z,4.03
2018-06-28T23:15:33.088Z,2.40
2018-06-28T23:18:02.391Z,3.10
2018-06-28T23:20:31.656Z,2.83
2018-06-28T23:23:00.937Z,4.83
2018-06-28T23:25:30.645Z,3.57
2018-06-28T23:27:59.900Z,2.00
2018-06-28T23:30:29.147Z,1.97
2018-06-28T23:32:58.473Z,2.97
2018-06-28T23:35:27.701Z,2.93
2018-06-28T23:37:56.947Z,1.93
2018-06-28T23:40:26.480Z,4.67
2018-06-28T23:42:55.799Z,4.33
2018-06-28T23:45:25.070Z,3.30
2018-06-28T23:47:54.425Z,3.27
2018-06-28T23:50:23.721Z,2.60
2018-06-28T23:52:53.087Z,7.23
2018-06-28T23:55:22.329Z,4.17
2018-06-28T23:57:52.059Z,2.70
